createdAt,value
2019-03-21T00:00:35.330Z,101222.07
2019-03-21T00:05:39.190Z,101225.84
2019-03-21T00:11:43.644Z,101219.21
2019-03-21T00:16:47.673Z,101213.72
2019-03-21T00:21:51.536Z,101209.31
2019-03-21T00:26:55.483Z,101200.25
2019-03-21T00:31:59.311Z,101187.62
2019-03-21T00:37:03.446Z,101182.98
2019-03-21T00:42:07.410Z,101183.88
2019-03-21T00:47:11.852Z,101174.89
2019-03-21T00:52:16.291Z,101162.80
2019-03-21T00:57:20.319Z,101160.14
2019-03-21T01:02:24.178Z,101173.03
2019-03-21T01:07:28.167Z,101178.20
2019-03-21T01:12:32.104Z,101172.02
2019-03-21T01:17:36.017Z,101168.16
2019-03-21T01:22:39.925Z,101165.76
2019-03-21T01:27:44.090Z,101178.94
2019-03-21T01:32:48.013Z,101163.44
2019-03-21T01:37:51.948Z,101144.97
2019-03-21T01:42:55.834Z,101133.95
2019-03-21T01:47:59.905Z,101138.14
2019-03-21T01:53:03.827Z,101123.23
2019-03-21T01:58:08.130Z,101124.09
2019-03-21T02:03:11.861Z,101123.64
2019-03-21T02:08:15.898Z,101116.72
2019-03-21T02:13:20.253Z,101115.45
2019-03-21T02:18:24.482Z,101138.30
2019-03-21T02:23:29.268Z,101141.58
2019-03-21T02:28:32.992Z,101130.48
2019-03-21T02:33:37.104Z,101125.47
2019-03-21T02:38:41.201Z,101123.21
2019-03-21T02:43:44.918Z,101127.78
2019-03-21T02:48:48.762Z,101131.28
2019-03-21T02:53:52.694Z,101127.30
2019-03-21T02:58:57.082Z,101129.20
2019-03-21T03:04:00.956Z,101132.64
2019-03-21T03:09:08.112Z,101153.70
2019-03-21T03:14:11.988Z,101163.47
2019-03-21T03:19:15.799Z,101168.86
2019-03-21T03:24:22.239Z,101165.91
2019-03-21T03:29:26.363Z,101168.86
2019-03-21T03:34:30.372Z,101169.28
2019-03-21T03:39:36.832Z,101164.66
2019-03-21T03:44:40.164Z,101150.05
2019-03-21T03:49:44.271Z,101149.92
2019-03-21T03:54:48.205Z,101143.62
2019-03-21T03:59:52.474Z,101144.53
2019-03-21T04:04:56.371Z,101142.34
2019-03-21T04:10:00.561Z,101137.95
2019-03-21T04:15:05.853Z,101150.62
2019-03-21T04:20:12.461Z,101154.73
2019-03-21T04:25:24.118Z,101154.28
2019-03-21T04:30:27.939Z,101151.52
2019-03-21T04:35:31.894Z,101143.16
2019-03-21T04:40:35.882Z,101138.02
2019-03-21T04:45:39.778Z,101147.26
2019-03-21T04:50:43.813Z,101144.94
2019-03-21T04:55:47.754Z,101143.95
2019-03-21T05:00:51.524Z,101142.53
2019-03-21T05:05:55.382Z,101136.41
2019-03-21T05:10:59.327Z,101131.95
2019-03-21T05:16:14.030Z,101125.83
2019-03-21T05:21:10.026Z,101139.13
2019-03-21T05:26:14.220Z,101139.01
2019-03-21T05:31:26.243Z,101140.61
2019-03-21T05:36:30.337Z,101144.53
2019-03-21T05:41:34.234Z,101142.66
2019-03-21T05:46:38.107Z,101135.91
2019-03-21T05:51:42.201Z,101149.54
2019-03-21T05:56:46.121Z,101153.34
2019-03-21T06:01:50.323Z,101158.17
2019-03-21T06:07:16.284Z,101164.22
2019-03-21T06:12:20.245Z,101169.48
2019-03-21T06:17:24.950Z,101183.73
2019-03-21T06:23:13.124Z,101184.30
2019-03-21T06:28:16.889Z,101191.61
2019-03-21T06:33:20.860Z,101187.98
2019-03-21T06:38:24.715Z,101199.16
2019-03-21T06:43:28.858Z,101195.08
2019-03-21T06:48:32.834Z,101199.01
2019-03-21T06:53:36.703Z,101208.58
2019-03-21T06:58:40.465Z,101205.81
2019-03-21T07:03:44.390Z,101194.53
2019-03-21T07:08:48.389Z,101197.69
2019-03-21T07:13:52.355Z,101201.42
2019-03-21T07:18:56.126Z,101198.50
2019-03-21T07:24:00.071Z,101195.58
2019-03-21T07:29:04.098Z,101205.79
2019-03-21T07:34:10.101Z,101203.11
2019-03-21T07:39:13.557Z,101201.75
2019-03-21T07:44:17.274Z,101197.61
2019-03-21T07:49:21.066Z,101208.11
2019-03-21T07:54:24.973Z,101197.22
2019-03-21T07:59:28.758Z,101197.80
2019-03-21T08:04:32.817Z,101196.73
2019-03-21T08:09:36.821Z,101196.37
2019-03-21T08:14:41.381Z,101202.13
2019-03-21T08:19:45.447Z,101202.97
2019-03-21T08:24:49.459Z,101197.48
2019-03-21T08:29:53.647Z,101185.39
2019-03-21T08:34:57.522Z,101193.91
2019-03-21T08:40:01.438Z,101191.53
2019-03-21T08:45:06.716Z,101195.71
2019-03-21T08:50:10.990Z,101207.06
2019-03-21T08:55:14.875Z,101201.77
2019-03-21T09:00:18.935Z,101203.56
2019-03-21T09:05:22.818Z,101209.02
2019-03-21T09:10:26.667Z,101210.44
2019-03-21T09:15:30.572Z,101204.17
2019-03-21T09:20:34.330Z,101209.28
2019-03-21T09:25:38.138Z,101207.40
2019-03-21T09:30:42.349Z,101206.17
2019-03-21T09:35:46.274Z,101202.83
2019-03-21T09:40:50.017Z,101194.94
2019-03-21T09:45:53.754Z,101199.81
2019-03-21T09:50:57.537Z,101191.70
2019-03-21T09:56:01.498Z,101186.91
2019-03-21T10:01:05.408Z,101180.11
2019-03-21T10:06:09.343Z,101169.51
2019-03-21T10:11:13.372Z,101168.64
2019-03-21T10:16:17.283Z,101165.77
2019-03-21T10:21:21.054Z,101167.98
2019-03-21T10:26:25.138Z,101168.69
2019-03-21T10:31:29.077Z,101162.14
2019-03-21T10:36:33.045Z,101165.17
2019-03-21T10:41:37.023Z,101173.61
2019-03-21T10:46:41.052Z,101166.03
2019-03-21T10:51:54.435Z,101158.46
2019-03-21T10:56:50.642Z,101165.08
2019-03-21T11:01:54.533Z,101161.11
2019-03-21T11:07:03.199Z,101165.93
2019-03-21T11:12:07.239Z,101160.31
2019-03-21T11:17:11.123Z,101152.20
2019-03-21T11:22:14.855Z,101146.28
2019-03-21T11:27:18.598Z,101141.83
2019-03-21T11:32:22.665Z,101135.73
2019-03-21T11:37:26.570Z,101130.27
2019-03-21T11:42:30.496Z,101114.56
2019-03-21T11:47:41.607Z,101118.69
2019-03-21T11:52:41.223Z,101116.88
2019-03-21T11:57:45.216Z,101111.93
2019-03-21T12:02:49.638Z,101119.86
2019-03-21T12:07:53.522Z,101123.50
2019-03-21T12:12:57.807Z,101110.73
2019-03-21T12:18:01.678Z,101120.28
2019-03-21T12:23:06.010Z,101120.46
2019-03-21T12:28:10.234Z,101108.64
2019-03-21T12:33:14.133Z,101099.89
2019-03-21T12:38:17.997Z,101095.33
2019-03-21T12:43:22.042Z,101082.69
2019-03-21T12:48:25.956Z,101080.86
2019-03-21T12:53:29.777Z,101083.30
2019-03-21T12:58:33.805Z,101083.88
2019-03-21T13:03:37.764Z,101076.63
2019-03-21T13:08:41.761Z,101071.11
2019-03-21T13:13:45.815Z,101057.83
2019-03-21T13:18:49.728Z,101060.16
2019-03-21T13:23:53.661Z,101055.77
2019-03-21T13:28:57.992Z,101051.13
2019-03-21T13:34:01.910Z,101051.43
2019-03-21T13:39:07.886Z,101050.34
2019-03-21T13:44:11.728Z,101036.11
2019-03-21T13:49:15.585Z,101031.17
2019-03-21T13:54:19.476Z,101026.53
2019-03-21T13:59:23.395Z,101035.88
2019-03-21T14:04:27.361Z,101040.02
2019-03-21T14:09:31.245Z,101035.70
2019-03-21T14:14:35.059Z,101037.16
2019-03-21T14:19:39.024Z,101032.23
2019-03-21T14:24:43.148Z,101027.34
2019-03-21T14:29:47.057Z,101025.52
2019-03-21T14:34:50.960Z,101020.72
2019-03-21T14:39:55.117Z,101023.47
2019-03-21T14:44:59.051Z,101022.28
2019-03-21T14:50:04.083Z,101017.63
2019-03-21T14:55:09.611Z,101011.60
2019-03-21T15:00:18.275Z,101006.20
2019-03-21T15:05:22.200Z,101008.45
2019-03-21T15:10:26.070Z,101004.76
2019-03-21T15:15:32.181Z,101006.69
2019-03-21T15:20:35.964Z,100999.42
2019-03-21T15:25:40.121Z,101006.45
2019-03-21T15:30:44.217Z,101009.69
2019-03-21T15:35:48.200Z,101001.16
2019-03-21T15:40:52.452Z,100998.19
2019-03-21T15:45:56.769Z,101003.20
2019-03-21T15:51:04.846Z,101002.89
2019-03-21T15:56:06.379Z,100997.92
2019-03-21T16:01:10.344Z,100982.61
2019-03-21T16:06:14.479Z,100994.08
2019-03-21T16:11:18.275Z,100985.67
2019-03-21T16:16:22.343Z,100987.14
2019-03-21T16:21:26.399Z,100992.58
2019-03-21T16:26:30.272Z,100988.61
2019-03-21T16:31:34.021Z,100982.85
2019-03-21T16:36:37.940Z,100982.91
2019-03-21T16:41:41.819Z,100996.73
2019-03-21T16:46:45.795Z,100987.34
2019-03-21T16:51:49.702Z,100984.38
2019-03-21T16:56:53.655Z,100989.16
2019-03-21T17:01:57.586Z,100987.42
2019-03-21T17:07:01.597Z,100979.03
2019-03-21T17:12:05.427Z,100990.93
2019-03-21T17:17:09.423Z,100981.86
2019-03-21T17:22:13.621Z,100993.29
2019-03-21T17:27:17.608Z,100983.89
2019-03-21T17:32:21.587Z,100989.64
2019-03-21T17:37:25.523Z,100996.79
2019-03-21T17:42:29.520Z,100999.15
2019-03-21T17:47:33.881Z,101006.05
2019-03-21T17:52:37.589Z,101007.37
2019-03-21T17:57:41.416Z,101013.19
2019-03-21T18:02:45.301Z,101004.97
2019-03-21T18:07:49.344Z,101006.22
2019-03-21T18:12:53.231Z,101007.25
2019-03-21T18:17:57.260Z,101006.94
2019-03-21T18:23:01.617Z,101007.75
2019-03-21T18:28:08.432Z,100998.30
2019-03-21T18:33:11.446Z,100994.86
2019-03-21T18:38:15.399Z,101002.58
2019-03-21T18:43:19.393Z,101003.30
2019-03-21T18:48:23.384Z,100998.53
2019-03-21T18:53:27.487Z,101000.70
2019-03-21T18:58:31.396Z,101002.32
2019-03-21T19:03:35.345Z,101004.41
2019-03-21T19:08:39.125Z,101003.61
2019-03-21T19:13:43.299Z,101011.13
2019-03-21T19:18:47.193Z,101015.56
2019-03-21T19:23:51.186Z,101016.12
2019-03-21T19:28:54.986Z,101024.05
2019-03-21T19:33:59.882Z,101016.16
2019-03-21T19:39:06.539Z,101024.27
2019-03-21T19:44:10.817Z,101016.98
2019-03-21T19:49:14.858Z,101012.85
2019-03-21T19:54:18.958Z,101012.38
2019-03-21T19:59:22.861Z,101013.34
2019-03-21T20:04:26.853Z,101012.17
2019-03-21T20:09:30.804Z,100997.02
2019-03-21T20:14:34.625Z,100998.86
2019-03-21T20:19:38.475Z,101002.33
2019-03-21T20:24:42.362Z,101005.30
2019-03-21T20:29:46.624Z,100998.69
2019-03-21T20:34:50.609Z,101003.15
2019-03-21T20:39:54.726Z,100994.88
2019-03-21T20:44:58.680Z,101000.52
2019-03-21T20:50:02.994Z,100996.56
2019-03-21T20:55:08.632Z,100991.45
2019-03-21T21:00:16.492Z,100994.12
2019-03-21T21:05:22.939Z,101002.68
2019-03-21T21:10:26.903Z,100999.07
2019-03-21T21:15:30.956Z,101000.89
2019-03-21T21:20:34.944Z,100997.41
2019-03-21T21:25:38.798Z,100991.48
2019-03-21T21:30:42.858Z,100994.80
2019-03-21T21:35:46.853Z,100987.89
2019-03-21T21:40:50.817Z,100987.03
2019-03-21T21:45:54.939Z,100991.81
2019-03-21T21:50:59.111Z,100986.83
2019-03-21T21:56:03.917Z,100985.75
2019-03-21T22:01:07.852Z,100987.97
2019-03-21T22:06:11.958Z,100987.84
2019-03-21T22:11:15.938Z,100980.27
2019-03-21T22:16:19.832Z,100989.49
2019-03-21T22:21:23.735Z,100991.16
2019-03-21T22:26:29.848Z,100989.50
2019-03-21T22:31:33.660Z,100982.27
2019-03-21T22:36:48.630Z,100989.50
2019-03-21T22:41:43.278Z,100988.06
2019-03-21T22:46:47.539Z,100994.17
2019-03-21T22:51:51.292Z,100996.28
2019-03-21T22:56:55.011Z,100996.80
2019-03-21T23:02:02.381Z,100998.58
2019-03-21T23:07:06.377Z,100988.86
2019-03-21T23:12:10.487Z,100984.28
2019-03-21T23:17:14.235Z,100984.11
2019-03-21T23:22:18.008Z,100979.13
2019-03-21T23:27:21.966Z,100989.03
2019-03-21T23:32:26.228Z,100983.41
2019-03-21T23:37:30.036Z,100978.62
2019-03-21T23:42:33.783Z,100976.69
2019-03-21T23:47:37.790Z,100980.47
2019-03-21T23:52:41.902Z,100978.83
2019-03-21T23:57:46.107Z,100980.80
